createdAt,value
2023-03-26T00:00:29.054Z,5.45
2023-03-26T00:01:33.908Z,6.60
2023-03-26T00:02:35.752Z,6.25
2023-03-26T00:03:39.167Z,6.40
2023-03-26T00:04:42.661Z,6.25
2023-03-26T00:05:45.897Z,6.65
2023-03-26T00:06:49.023Z,5.47
2023-03-26T00:07:51.735Z,5.28
2023-03-26T00:08:53.641Z,5.50
2023-03-26T00:09:55.957Z,5.38
2023-03-26T00:11:59.199Z,5.90
2023-03-26T00:13:00.823Z,4.90
2023-03-26T00:14:02.730Z,5.97
2023-03-26T00:15:04.635Z,6.75
2023-03-26T00:16:06.546Z,6.35
2023-03-26T00:17:08.485Z,5.60
2023-03-26T00:18:10.226Z,5.50
2023-03-26T00:19:12.575Z,5.60
2023-03-26T00:20:14.750Z,4.65
2023-03-26T00:21:17.569Z,5.90
2023-03-26T00:22:19.276Z,7.18
2023-03-26T00:23:20.938Z,5.63
2023-03-26T00:24:29.401Z,5.95
2023-03-26T00:25:32.057Z,7.35
2023-03-26T00:26:34.598Z,6.45
2023-03-26T00:27:36.156Z,4.57
2023-03-26T00:28:38.332Z,5.07
2023-03-26T00:29:40.015Z,4.90
2023-03-26T00:30:41.907Z,5.00
2023-03-26T00:31:46.607Z,5.80
2023-03-26T00:32:53.632Z,5.93
2023-03-26T00:33:55.874Z,5.43
2023-03-26T00:34:57.734Z,5.22
2023-03-26T00:36:03.248Z,4.80
2023-03-26T00:37:06.029Z,6.03
2023-03-26T00:38:07.811Z,5.97
2023-03-26T00:39:10.085Z,4.80
2023-03-26T00:40:12.022Z,5.38
2023-03-26T00:41:18.094Z,6.35
2023-03-26T00:42:20.041Z,4.15
2023-03-26T00:43:22.769Z,5.00
2023-03-26T00:44:24.291Z,5.50
2023-03-26T00:45:25.840Z,5.18
2023-03-26T00:46:28.758Z,5.03
2023-03-26T00:47:30.948Z,5.20
2023-03-26T00:48:44.522Z,5.05
2023-03-26T00:49:47.154Z,4.80
2023-03-26T00:50:49.360Z,5.20
2023-03-26T00:51:51.344Z,5.10
2023-03-26T00:52:55.852Z,5.43
2023-03-26T00:53:58.069Z,5.35
2023-03-26T00:54:59.753Z,5.38
2023-03-26T00:56:01.289Z,4.65
2023-03-26T00:57:02.878Z,5.20
2023-03-26T00:58:04.592Z,5.05
2023-03-26T00:59:06.433Z,6.68
2023-03-26T01:00:15.287Z,6.28
2023-03-26T01:01:21.173Z,5.22
2023-03-26T01:02:23.414Z,5.60
2023-03-26T01:03:29.251Z,5.78
2023-03-26T01:04:34.786Z,5.82
2023-03-26T01:05:43.004Z,5.00
2023-03-26T01:06:45.223Z,5.80
2023-03-26T01:07:47.539Z,6.53
2023-03-26T01:08:50.814Z,5.80
2023-03-26T01:09:52.335Z,5.97
2023-03-26T01:11:02.837Z,4.80
2023-03-26T01:12:06.731Z,5.60
2023-03-26T01:13:08.537Z,6.30
2023-03-26T01:14:11.445Z,6.20
2023-03-26T01:15:13.796Z,5.40
2023-03-26T01:16:20.578Z,5.35
2023-03-26T01:17:23.054Z,5.13
2023-03-26T01:18:27.577Z,5.57
2023-03-26T01:19:29.745Z,4.90
2023-03-26T01:20:34.051Z,5.40
2023-03-26T01:21:36.005Z,5.20
2023-03-26T01:22:38.905Z,5.55
2023-03-26T01:23:49.106Z,4.68
2023-03-26T01:24:56.593Z,4.75
2023-03-26T01:26:06.036Z,5.50
2023-03-26T01:27:10.381Z,4.65
2023-03-26T01:28:12.665Z,5.70
2023-03-26T01:29:20.809Z,4.75
2023-03-26T01:30:27.190Z,5.22
2023-03-26T01:31:31.387Z,7.47
2023-03-26T01:32:39.097Z,5.38
2023-03-26T01:33:52.375Z,4.57
2023-03-26T01:35:00.463Z,5.05
2023-03-26T01:36:23.499Z,4.97
2023-03-26T01:37:30.510Z,5.22
2023-03-26T01:38:38.112Z,4.85
2023-03-26T01:39:49.522Z,5.00
2023-03-26T01:41:05.205Z,4.78
2023-03-26T01:42:09.654Z,4.75
2023-03-26T01:43:11.276Z,4.70
2023-03-26T01:44:21.628Z,4.72
2023-03-26T01:45:26.209Z,4.40
2023-03-26T01:46:28.780Z,4.47
2023-03-26T01:47:31.141Z,4.47
2023-03-26T01:48:37.422Z,3.50
2023-03-26T01:49:39.002Z,4.40
2023-03-26T01:50:41.183Z,4.05
2023-03-26T01:51:42.877Z,4.55
2023-03-26T01:52:44.955Z,4.10
2023-03-26T01:53:48.467Z,3.95
2023-03-26T01:54:50.276Z,4.15
2023-03-26T01:56:13.425Z,4.20
2023-03-26T01:57:20.981Z,4.50
2023-03-26T01:58:27.895Z,4.00
2023-03-26T01:59:29.440Z,3.90
2023-03-26T02:00:31.037Z,3.90
2023-03-26T02:01:44.738Z,3.95
2023-03-26T02:03:18.007Z,4.55
2023-03-26T02:04:19.943Z,3.85
2023-03-26T02:05:27.147Z,3.63
2023-03-26T02:06:37.550Z,4.07
2023-03-26T02:07:44.679Z,4.57
2023-03-26T02:08:48.449Z,3.88
2023-03-26T02:10:00.685Z,3.92
2023-03-26T02:11:11.492Z,4.07
2023-03-26T02:12:14.645Z,4.45
2023-03-26T02:13:16.239Z,5.07
2023-03-26T02:14:17.987Z,3.85
2023-03-26T02:15:19.620Z,4.57
2023-03-26T02:16:21.233Z,3.33
2023-03-26T02:17:24.503Z,3.78
2023-03-26T02:18:36.132Z,3.70
2023-03-26T02:19:42.064Z,3.95
2023-03-26T02:20:43.711Z,4.10
2023-03-26T02:21:47.019Z,4.68
2023-03-26T02:22:49.128Z,3.80
2023-03-26T02:23:57.861Z,3.42
2023-03-26T02:24:59.721Z,4.65
2023-03-26T02:26:03.095Z,3.50
2023-03-26T02:27:07.710Z,4.35
2023-03-26T02:28:09.271Z,3.72
2023-03-26T02:29:11.284Z,4.43
2023-03-26T02:30:15.446Z,4.18
2023-03-26T02:31:19.255Z,3.67
2023-03-26T02:32:21.006Z,3.72
2023-03-26T02:33:22.517Z,3.88
2023-03-26T02:34:24.233Z,4.68
2023-03-26T02:35:25.807Z,3.53
2023-03-26T02:36:28.046Z,4.20
2023-03-26T02:37:30.413Z,3.70
2023-03-26T02:38:35.500Z,3.75
2023-03-26T02:39:37.072Z,4.30
2023-03-26T02:40:40.165Z,3.70
2023-03-26T02:41:41.766Z,4.38
2023-03-26T02:42:43.328Z,3.65
2023-03-26T02:43:44.857Z,4.03
2023-03-26T02:44:46.432Z,3.90
2023-03-26T02:45:48.357Z,3.85
2023-03-26T02:46:49.917Z,4.88
2023-03-26T02:47:51.428Z,3.97
2023-03-26T02:48:53.043Z,3.50
2023-03-26T02:49:54.691Z,3.55
2023-03-26T02:50:56.214Z,3.83
2023-03-26T02:51:57.888Z,3.35
2023-03-26T02:52:59.397Z,3.50
2023-03-26T02:54:01.688Z,3.97
2023-03-26T02:55:03.846Z,3.13
2023-03-26T02:56:05.662Z,3.60
2023-03-26T02:57:07.273Z,3.35
2023-03-26T02:58:08.904Z,3.30
2023-03-26T02:59:10.800Z,3.38
2023-03-26T03:00:15.539Z,3.35
2023-03-26T03:01:18.485Z,3.22
2023-03-26T03:02:20.273Z,4.50
2023-03-26T03:03:24.288Z,3.75
2023-03-26T03:04:25.898Z,3.50
2023-03-26T03:05:28.862Z,3.38
2023-03-26T03:06:31.030Z,3.78
2023-03-26T03:07:32.691Z,3.40
2023-03-26T03:08:34.260Z,4.20
2023-03-26T03:09:35.833Z,4.28
2023-03-26T03:10:38.006Z,3.65
2023-03-26T03:11:40.328Z,3.65
2023-03-26T03:12:42.215Z,4.30
2023-03-26T03:13:44.383Z,4.25
2023-03-26T03:14:45.927Z,4.18
2023-03-26T03:15:47.784Z,3.30
2023-03-26T03:16:49.653Z,4.60
2023-03-26T03:17:51.582Z,4.30
2023-03-26T03:18:58.168Z,3.72
2023-03-26T03:20:00.003Z,4.20
2023-03-26T03:21:02.891Z,3.60
2023-03-26T03:22:04.347Z,3.55
2023-03-26T03:23:06.104Z,3.92
2023-03-26T03:24:08.020Z,3.95
2023-03-26T03:25:14.278Z,4.00
2023-03-26T03:26:17.422Z,4.60
2023-03-26T03:27:22.331Z,3.45
2023-03-26T03:28:24.524Z,4.03
2023-03-26T03:29:26.293Z,3.95
2023-03-26T03:30:27.861Z,3.97
2023-03-26T03:31:29.509Z,4.18
2023-03-26T03:32:31.060Z,5.10
2023-03-26T03:33:32.625Z,4.45
2023-03-26T03:34:34.169Z,4.45
2023-03-26T03:35:35.855Z,4.03
2023-03-26T03:36:38.568Z,4.30
2023-03-26T03:37:40.509Z,3.65
2023-03-26T03:38:42.096Z,3.33
2023-03-26T03:39:44.074Z,3.30
2023-03-26T03:40:45.868Z,4.00
2023-03-26T03:41:47.391Z,3.53
2023-03-26T03:42:49.645Z,4.00
2023-03-26T03:43:51.955Z,3.50
2023-03-26T03:44:53.436Z,4.10
2023-03-26T03:45:55.029Z,3.15
2023-03-26T03:46:57.029Z,4.13
2023-03-26T03:47:58.700Z,3.47
2023-03-26T03:49:00.337Z,3.00
2023-03-26T03:50:02.007Z,3.05
2023-03-26T03:51:03.666Z,3.60
2023-03-26T03:52:05.874Z,3.90
2023-03-26T03:53:07.323Z,3.30
2023-03-26T03:54:08.763Z,3.47
2023-03-26T03:55:10.640Z,3.30
2023-03-26T03:56:14.810Z,3.08
2023-03-26T03:57:18.883Z,3.78
2023-03-26T03:58:22.396Z,2.63
2023-03-26T03:59:24.018Z,3.15
2023-03-26T04:00:25.621Z,3.20
2023-03-26T04:01:30.723Z,3.05
2023-03-26T04:02:35.081Z,3.67
2023-03-26T04:03:39.066Z,3.55
2023-03-26T04:04:41.144Z,3.90
2023-03-26T04:05:49.850Z,3.30
2023-03-26T04:06:52.222Z,4.97
2023-03-26T04:07:53.670Z,3.45
2023-03-26T04:08:55.290Z,3.80
2023-03-26T04:09:57.255Z,3.65
2023-03-26T04:10:58.874Z,3.30
2023-03-26T04:12:00.487Z,3.08
2023-03-26T04:13:01.967Z,3.40
2023-03-26T04:14:04.068Z,3.25
2023-03-26T04:15:05.993Z,2.58
2023-03-26T04:16:07.764Z,3.20
2023-03-26T04:17:09.387Z,3.38
2023-03-26T04:18:11.839Z,3.40
2023-03-26T04:19:14.345Z,2.83
2023-03-26T04:20:16.164Z,2.80
2023-03-26T04:21:17.825Z,3.60
2023-03-26T04:22:19.740Z,3.90
2023-03-26T04:23:22.309Z,3.20
2023-03-26T04:24:24.568Z,3.33
2023-03-26T04:25:30.502Z,2.95
2023-03-26T04:26:32.059Z,3.50
2023-03-26T04:27:36.809Z,3.42
2023-03-26T04:28:47.398Z,3.25
2023-03-26T04:29:50.028Z,3.70
2023-03-26T04:30:53.733Z,4.60
2023-03-26T04:31:58.741Z,3.53
2023-03-26T04:33:04.183Z,2.95
2023-03-26T04:34:07.658Z,2.85
2023-03-26T04:35:11.649Z,3.80
2023-03-26T04:36:13.998Z,3.33
2023-03-26T04:37:35.838Z,3.63
2023-03-26T04:38:40.391Z,3.13
2023-03-26T04:39:41.848Z,2.92
2023-03-26T04:40:47.502Z,3.95
2023-03-26T04:41:49.180Z,4.68
2023-03-26T04:42:51.129Z,3.35
2023-03-26T04:43:53.387Z,3.20
2023-03-26T04:44:54.882Z,4.63
2023-03-26T04:45:56.624Z,2.83
2023-03-26T04:46:58.377Z,3.20
2023-03-26T04:48:00.226Z,3.15
2023-03-26T04:49:02.160Z,2.90
2023-03-26T04:50:07.505Z,3.05
2023-03-26T04:51:10.315Z,3.20
2023-03-26T04:52:12.781Z,3.63
2023-03-26T04:53:16.061Z,3.25
2023-03-26T04:54:20.170Z,2.78
2023-03-26T04:55:24.968Z,3.30
2023-03-26T04:56:47.455Z,3.00
2023-03-26T04:57:53.144Z,3.22
2023-03-26T04:58:57.751Z,2.67
2023-03-26T04:59:59.184Z,2.90
2023-03-26T05:01:10.210Z,3.00
2023-03-26T05:02:13.020Z,2.50
2023-03-26T05:03:14.619Z,2.70
2023-03-26T05:04:16.296Z,2.53
2023-03-26T05:05:18.291Z,3.45
2023-03-26T05:06:19.999Z,2.75
2023-03-26T05:07:23.967Z,2.53
2023-03-26T05:08:26.906Z,2.53
2023-03-26T05:09:28.794Z,3.17
2023-03-26T05:10:30.311Z,3.40
2023-03-26T05:11:31.748Z,3.05
2023-03-26T05:12:33.375Z,3.00
2023-03-26T05:13:34.912Z,2.80
2023-03-26T05:14:36.422Z,2.95
2023-03-26T05:15:38.034Z,3.50
2023-03-26T05:16:39.629Z,3.03
2023-03-26T05:17:42.700Z,2.70
2023-03-26T05:18:44.252Z,2.63
2023-03-26T05:19:47.169Z,3.42
2023-03-26T05:20:48.680Z,2.75
2023-03-26T05:21:50.457Z,2.60
2023-03-26T05:22:52.401Z,3.45
2023-03-26T05:23:53.888Z,2.92
2023-03-26T05:24:56.316Z,2.58
2023-03-26T05:25:57.798Z,2.45
2023-03-26T05:26:59.362Z,2.55
2023-03-26T05:28:01.432Z,2.78
2023-03-26T05:29:03.833Z,2.05
2023-03-26T05:30:06.077Z,2.75
2023-03-26T05:31:08.259Z,3.08
2023-03-26T05:32:10.364Z,2.90
2023-03-26T05:33:11.902Z,2.90
2023-03-26T05:34:14.168Z,2.35
2023-03-26T05:35:17.285Z,2.95
2023-03-26T05:36:19.279Z,2.80
2023-03-26T05:37:24.553Z,2.67
2023-03-26T05:38:27.523Z,2.65
2023-03-26T05:39:29.866Z,3.00
2023-03-26T05:40:31.519Z,3.65
2023-03-26T05:41:32.971Z,2.90
2023-03-26T05:42:34.484Z,2.47
2023-03-26T05:43:36.458Z,3.40
2023-03-26T05:44:37.929Z,4.22
2023-03-26T05:45:39.554Z,2.72
2023-03-26T05:46:41.215Z,2.45
2023-03-26T05:47:42.832Z,2.65
2023-03-26T05:48:44.444Z,2.80
2023-03-26T05:49:46.915Z,2.63
2023-03-26T05:50:49.466Z,2.50
2023-03-26T05:51:52.431Z,3.15
2023-03-26T05:52:55.355Z,3.00
2023-03-26T05:53:56.851Z,3.17
2023-03-26T05:54:58.629Z,2.95
2023-03-26T05:56:00.906Z,2.35
2023-03-26T05:57:02.458Z,1.95
2023-03-26T05:58:03.891Z,3.08
2023-03-26T05:59:05.525Z,2.53
2023-03-26T06:00:09.001Z,2.45
2023-03-26T06:01:16.973Z,2.30
2023-03-26T06:02:18.553Z,2.60
2023-03-26T06:03:20.305Z,2.67
2023-03-26T06:04:22.104Z,2.40
2023-03-26T06:05:23.700Z,2.42
2023-03-26T06:06:26.087Z,2.90
2023-03-26T06:07:28.173Z,2.58
2023-03-26T06:08:30.223Z,2.15
2023-03-26T06:09:31.686Z,2.80
2023-03-26T06:10:33.374Z,2.38
2023-03-26T06:11:34.977Z,1.77
2023-03-26T06:12:37.097Z,2.70
2023-03-26T06:13:39.228Z,2.45
2023-03-26T06:14:43.033Z,3.30
2023-03-26T06:15:44.595Z,2.40
2023-03-26T06:16:46.365Z,2.60
2023-03-26T06:17:48.110Z,2.42
2023-03-26T06:18:56.215Z,2.20
2023-03-26T06:19:58.652Z,2.60
2023-03-26T06:21:00.330Z,2.80
2023-03-26T06:22:01.890Z,3.05
2023-03-26T06:23:03.496Z,2.03
2023-03-26T06:24:05.321Z,2.55
2023-03-26T06:25:06.970Z,2.85
2023-03-26T06:26:08.468Z,2.53
2023-03-26T06:27:10.149Z,3.08
2023-03-26T06:28:12.155Z,2.95
2023-03-26T06:29:14.650Z,4.15
2023-03-26T06:30:16.187Z,4.05
2023-03-26T06:31:19.354Z,2.97
2023-03-26T06:32:21.292Z,2.38
2023-03-26T06:33:24.489Z,2.72
2023-03-26T06:34:26.704Z,3.58
2023-03-26T06:35:29.975Z,2.80
2023-03-26T06:36:31.432Z,3.35
2023-03-26T06:37:33.016Z,2.90
2023-03-26T06:38:34.696Z,3.25
2023-03-26T06:39:36.228Z,3.08
2023-03-26T06:40:37.780Z,3.63
2023-03-26T06:41:39.288Z,3.05
2023-03-26T06:43:07.933Z,3.65
2023-03-26T06:44:02.529Z,3.10
2023-03-26T06:45:04.272Z,3.33
2023-03-26T06:46:06.029Z,3.75
2023-03-26T06:47:07.536Z,3.65
2023-03-26T06:48:09.122Z,3.60
2023-03-26T06:49:10.749Z,3.33
2023-03-26T06:50:12.337Z,5.38
2023-03-26T06:51:13.974Z,2.63
2023-03-26T06:52:15.463Z,4.30
2023-03-26T06:53:16.932Z,4.43
2023-03-26T06:54:18.754Z,3.30
2023-03-26T06:55:20.534Z,4.43
2023-03-26T06:56:22.014Z,4.95
2023-03-26T06:57:23.498Z,4.25
2023-03-26T06:58:25.068Z,3.10
2023-03-26T06:59:26.773Z,4.00
2023-03-26T07:00:28.490Z,3.95
2023-03-26T07:01:30.460Z,3.40
2023-03-26T07:02:32.034Z,3.03
2023-03-26T07:03:33.741Z,3.80
2023-03-26T07:04:35.418Z,3.20
2023-03-26T07:05:37.401Z,3.88
2023-03-26T07:06:38.906Z,3.50
2023-03-26T07:07:46.352Z,3.80
2023-03-26T07:08:48.341Z,4.07
2023-03-26T07:09:50.321Z,3.97
2023-03-26T07:10:52.085Z,4.30
2023-03-26T07:11:53.942Z,4.35
2023-03-26T07:12:55.577Z,5.07
2023-03-26T07:13:57.215Z,4.72
2023-03-26T07:15:00.341Z,5.20
2023-03-26T07:16:02.088Z,4.78
2023-03-26T07:17:03.688Z,3.75
2023-03-26T07:18:05.976Z,5.20
2023-03-26T07:19:07.766Z,4.68
2023-03-26T07:20:09.598Z,5.60
2023-03-26T07:21:12.128Z,4.22
2023-03-26T07:22:15.786Z,6.00
2023-03-26T07:23:20.517Z,6.35
2023-03-26T07:24:22.201Z,4.70
2023-03-26T07:25:23.902Z,5.30
2023-03-26T07:26:35.483Z,6.10
2023-03-26T07:27:44.183Z,4.30
2023-03-26T07:29:04.877Z,4.97
2023-03-26T07:30:30.499Z,5.45
2023-03-26T07:31:50.925Z,5.68
2023-03-26T07:32:58.377Z,7.55
2023-03-26T07:34:05.985Z,7.15
2023-03-26T07:35:27.947Z,6.07
2023-03-26T07:36:29.594Z,6.65
2023-03-26T07:37:31.065Z,5.53
2023-03-26T07:38:33.166Z,5.05
2023-03-26T07:39:41.164Z,5.55
2023-03-26T07:41:01.818Z,4.55
2023-03-26T07:42:09.851Z,5.68
2023-03-26T07:43:11.537Z,5.45
2023-03-26T07:44:27.917Z,5.05
2023-03-26T07:45:39.819Z,6.57
2023-03-26T07:46:41.617Z,5.95
2023-03-26T07:47:45.110Z,6.45
2023-03-26T07:48:50.089Z,5.47
2023-03-26T07:49:55.555Z,8.82
2023-03-26T07:50:57.576Z,6.97
2023-03-26T07:51:59.378Z,4.70
2023-03-26T07:53:01.420Z,6.82
2023-03-26T07:54:04.304Z,7.43
2023-03-26T07:55:06.348Z,7.38
2023-03-26T07:56:08.153Z,5.53
2023-03-26T07:57:16.045Z,4.72
2023-03-26T07:58:35.907Z,5.22
2023-03-26T07:59:40.386Z,7.72
2023-03-26T08:00:48.039Z,6.20
2023-03-26T08:01:49.962Z,7.93
2023-03-26T08:02:51.858Z,4.18
2023-03-26T08:03:54.010Z,4.25
2023-03-26T08:05:10.700Z,4.30
2023-03-26T08:06:15.160Z,5.32
2023-03-26T08:07:28.638Z,10.07
2023-03-26T08:08:54.353Z,6.80
2023-03-26T08:09:55.987Z,15.70
2023-03-26T08:11:00.694Z,13.90
2023-03-26T08:12:05.020Z,11.40
2023-03-26T08:13:20.411Z,6.60
2023-03-26T08:14:37.121Z,5.60
2023-03-26T08:15:59.106Z,4.72
2023-03-26T08:17:03.801Z,3.55
2023-03-26T08:18:14.351Z,3.17
2023-03-26T08:19:31.046Z,2.25
2023-03-26T08:20:32.657Z,2.55
2023-03-26T08:21:39.697Z,2.08
2023-03-26T08:22:42.751Z,4.00
2023-03-26T08:24:03.591Z,3.22
2023-03-26T08:25:17.728Z,3.13
2023-03-26T08:26:29.598Z,1.67
2023-03-26T08:27:37.795Z,2.17
2023-03-26T08:29:05.718Z,2.30
2023-03-26T08:30:07.586Z,2.65
2023-03-26T08:31:11.309Z,3.28
2023-03-26T08:32:14.359Z,1.70
2023-03-26T08:33:18.738Z,2.15
2023-03-26T08:34:20.405Z,1.63
2023-03-26T08:35:22.281Z,2.70
2023-03-26T08:36:23.835Z,1.85
2023-03-26T08:37:27.238Z,1.83
2023-03-26T08:38:28.942Z,1.50
2023-03-26T08:39:30.693Z,2.50
2023-03-26T08:40:58.416Z,1.60
2023-03-26T08:42:15.446Z,1.33
2023-03-26T08:43:31.536Z,1.50
2023-03-26T08:44:40.822Z,1.30
2023-03-26T08:45:59.127Z,1.60
2023-03-26T08:47:13.266Z,1.17
2023-03-26T08:48:27.197Z,1.47
2023-03-26T08:49:43.857Z,2.17
2023-03-26T08:50:45.354Z,1.60
2023-03-26T08:52:06.155Z,1.70
2023-03-26T08:53:08.633Z,11.97
2023-03-26T08:54:22.368Z,3.47
2023-03-26T08:55:42.827Z,3.33
2023-03-26T08:56:54.221Z,2.37
2023-03-26T08:58:14.691Z,1.20
2023-03-26T08:59:16.558Z,1.20
2023-03-26T09:00:40.475Z,1.40
2023-03-26T09:02:00.915Z,1.97
2023-03-26T09:03:16.566Z,1.47
2023-03-26T09:04:27.994Z,1.60
2023-03-26T09:05:32.618Z,1.37
2023-03-26T09:06:40.964Z,1.70
2023-03-26T09:07:45.717Z,2.13
2023-03-26T09:08:56.490Z,1.57
2023-03-26T09:09:58.432Z,2.40
2023-03-26T09:11:12.182Z,1.43
2023-03-26T09:12:26.146Z,1.60
2023-03-26T09:13:37.046Z,1.40
2023-03-26T09:14:51.729Z,1.30
2023-03-26T09:16:12.554Z,1.13
2023-03-26T09:17:15.212Z,1.10
2023-03-26T09:18:25.852Z,1.10
2023-03-26T09:19:42.549Z,1.30
2023-03-26T09:20:53.930Z,1.43
2023-03-26T09:22:14.563Z,0.93
2023-03-26T09:23:31.100Z,0.80
2023-03-26T09:24:32.644Z,0.80
2023-03-26T09:25:41.713Z,1.17
2023-03-26T09:27:06.329Z,0.80
2023-03-26T09:28:26.555Z,1.03
2023-03-26T09:29:46.989Z,1.40
2023-03-26T09:30:55.216Z,0.93
2023-03-26T09:32:12.050Z,0.90
2023-03-26T09:33:42.878Z,0.90
2023-03-26T09:34:47.234Z,1.30
2023-03-26T09:36:07.592Z,1.10
2023-03-26T09:37:09.234Z,1.33
2023-03-26T09:38:29.652Z,1.60
2023-03-26T09:39:38.954Z,1.03
2023-03-26T09:40:49.204Z,0.80
2023-03-26T09:42:11.799Z,1.10
2023-03-26T09:43:27.144Z,1.40
2023-03-26T09:44:37.953Z,1.70
2023-03-26T09:45:52.697Z,1.50
2023-03-26T09:47:00.815Z,0.77
2023-03-26T09:48:14.628Z,1.43
2023-03-26T09:49:35.146Z,1.37
2023-03-26T09:50:36.713Z,1.03
2023-03-26T09:51:57.623Z,1.00
2023-03-26T09:53:02.258Z,1.40
2023-03-26T09:54:03.909Z,1.20
2023-03-26T09:55:20.667Z,0.80
2023-03-26T09:56:26.251Z,1.30
2023-03-26T09:57:30.558Z,0.90
2023-03-26T09:58:50.759Z,1.10
2023-03-26T10:00:04.867Z,0.97
2023-03-26T10:01:25.429Z,1.20
2023-03-26T10:02:45.647Z,1.07
2023-03-26T10:03:49.345Z,0.93
2023-03-26T10:04:50.962Z,0.70
2023-03-26T10:06:11.940Z,1.00
2023-03-26T10:07:19.584Z,1.20
2023-03-26T10:08:41.548Z,1.07
2023-03-26T10:09:53.391Z,1.00
2023-03-26T10:10:59.643Z,0.73
2023-03-26T10:12:24.368Z,0.90
2023-03-26T10:13:26.184Z,1.10
2023-03-26T10:14:32.854Z,1.30
2023-03-26T10:15:41.367Z,1.00
2023-03-26T10:16:43.243Z,1.40
2023-03-26T10:17:50.912Z,1.20
2023-03-26T10:18:56.449Z,0.97
2023-03-26T10:20:09.469Z,0.80
2023-03-26T10:21:28.036Z,0.80
2023-03-26T10:22:59.489Z,0.93
2023-03-26T10:24:07.045Z,0.80
2023-03-26T10:25:20.770Z,1.10
2023-03-26T10:26:22.264Z,1.17
2023-03-26T10:27:32.906Z,0.97
2023-03-26T10:28:53.545Z,1.10
2023-03-26T10:30:08.417Z,1.00
2023-03-26T10:31:29.208Z,0.80
2023-03-26T10:32:33.811Z,1.10
2023-03-26T10:33:40.623Z,1.10
2023-03-26T10:34:42.188Z,1.20
2023-03-26T10:36:02.494Z,0.90
2023-03-26T10:37:04.465Z,0.67
2023-03-26T10:38:26.373Z,0.87
2023-03-26T10:39:44.472Z,0.90
2023-03-26T10:41:04.687Z,0.90
2023-03-26T10:42:24.979Z,0.70
2023-03-26T10:44:05.280Z,0.67
2023-03-26T10:45:12.631Z,1.07
2023-03-26T10:46:31.408Z,0.90
2023-03-26T10:47:51.945Z,1.23
2023-03-26T10:49:03.685Z,0.90
2023-03-26T10:50:23.677Z,1.07
2023-03-26T10:51:32.887Z,1.00
2023-03-26T10:52:55.133Z,1.10
2023-03-26T10:53:56.910Z,1.13
2023-03-26T10:55:03.935Z,1.10
2023-03-26T10:56:14.862Z,0.90
2023-03-26T10:57:29.942Z,1.57
2023-03-26T10:58:48.480Z,1.10
2023-03-26T10:59:52.344Z,1.30
2023-03-26T11:00:54.095Z,1.03
2023-03-26T11:02:21.010Z,1.40
2023-03-26T11:03:54.703Z,1.20
2023-03-26T11:04:59.520Z,1.50
2023-03-26T11:06:07.250Z,1.43
2023-03-26T11:07:22.853Z,1.00
2023-03-26T11:08:31.601Z,1.23
2023-03-26T11:09:44.692Z,1.60
2023-03-26T11:11:03.982Z,1.10
2023-03-26T11:12:27.034Z,1.40
2023-03-26T11:13:46.132Z,0.90
2023-03-26T11:14:58.773Z,1.30
2023-03-26T11:16:03.258Z,1.10
2023-03-26T11:17:04.938Z,1.43
2023-03-26T11:18:21.845Z,1.27
2023-03-26T11:19:35.514Z,1.30
2023-03-26T11:20:44.154Z,1.17
2023-03-26T11:21:45.972Z,1.20
2023-03-26T11:22:47.587Z,1.20
2023-03-26T11:23:49.278Z,1.00
2023-03-26T11:25:34.702Z,1.00
2023-03-26T11:26:53.092Z,1.13
2023-03-26T11:28:05.878Z,1.37
2023-03-26T11:29:31.576Z,1.07
2023-03-26T11:30:46.818Z,1.40
2023-03-26T11:32:07.433Z,1.13
2023-03-26T11:33:11.979Z,1.27
2023-03-26T11:34:16.513Z,0.90
2023-03-26T11:35:18.195Z,1.50
2023-03-26T11:36:42.601Z,1.30
2023-03-26T11:37:46.557Z,0.90
2023-03-26T11:38:50.165Z,1.33
2023-03-26T11:39:55.205Z,0.90
2023-03-26T11:40:59.808Z,1.30
2023-03-26T11:42:06.684Z,1.47
2023-03-26T11:43:10.612Z,1.10
2023-03-26T11:44:21.711Z,0.87
2023-03-26T11:45:25.651Z,1.00
2023-03-26T11:46:27.460Z,1.40
2023-03-26T11:47:34.155Z,1.20
2023-03-26T11:48:37.063Z,1.07
2023-03-26T11:49:39.639Z,1.30
2023-03-26T11:50:46.571Z,1.30
2023-03-26T11:51:48.840Z,1.07
2023-03-26T11:52:50.577Z,1.30
2023-03-26T11:53:52.143Z,1.90
2023-03-26T11:54:54.261Z,1.40
2023-03-26T11:55:59.585Z,1.60
2023-03-26T11:57:07.029Z,1.23
2023-03-26T11:58:21.632Z,1.07
2023-03-26T11:59:23.143Z,1.37
2023-03-26T12:00:27.759Z,1.10
2023-03-26T12:01:40.538Z,1.07
2023-03-26T12:02:42.303Z,0.90
2023-03-26T12:03:56.118Z,1.13
2023-03-26T12:05:15.071Z,1.00
2023-03-26T12:06:25.736Z,1.20
2023-03-26T12:07:33.277Z,1.23
2023-03-26T12:08:38.335Z,1.23
2023-03-26T12:09:49.956Z,1.00
2023-03-26T12:10:59.722Z,1.60
2023-03-26T12:12:03.492Z,1.20
2023-03-26T12:13:35.054Z,1.00
2023-03-26T12:14:42.335Z,1.10
2023-03-26T12:15:44.075Z,1.33
2023-03-26T12:17:00.803Z,1.10
2023-03-26T12:18:18.945Z,1.47
2023-03-26T12:19:22.300Z,1.20
2023-03-26T12:20:24.898Z,1.20
2023-03-26T12:21:27.042Z,1.03
2023-03-26T12:22:37.320Z,1.90
2023-03-26T12:23:45.814Z,2.10
2023-03-26T12:25:00.333Z,1.77
2023-03-26T12:26:21.279Z,1.13
2023-03-26T12:27:28.390Z,1.17
2023-03-26T12:28:33.127Z,1.03
2023-03-26T12:29:34.930Z,1.07
2023-03-26T12:30:38.009Z,1.03
2023-03-26T12:31:45.657Z,1.20
2023-03-26T12:32:47.964Z,1.80
2023-03-26T12:34:06.044Z,1.30
2023-03-26T12:35:14.117Z,1.00
2023-03-26T12:36:26.729Z,1.20
2023-03-26T12:37:33.831Z,2.50
2023-03-26T12:38:37.985Z,1.50
2023-03-26T12:40:06.755Z,1.83
2023-03-26T12:44:42.330Z,1.57
2023-03-26T12:44:47.212Z,1.50
2023-03-26T12:44:51.244Z,1.40
2023-03-26T12:45:44.992Z,1.60
2023-03-26T12:47:58.861Z,1.57
2023-03-26T12:48:35.664Z,1.50
2023-03-26T12:49:38.078Z,1.43
2023-03-26T12:50:39.976Z,1.23
2023-03-26T12:51:42.458Z,1.50
2023-03-26T12:53:02.706Z,1.33
2023-03-26T12:54:24.062Z,1.03
2023-03-26T12:55:45.361Z,1.77
2023-03-26T12:57:11.963Z,1.47
2023-03-26T12:58:24.026Z,1.60
2023-03-26T12:59:39.352Z,1.30
2023-03-26T13:00:54.518Z,1.30
2023-03-26T13:01:59.389Z,1.20
2023-03-26T13:03:19.822Z,1.20
2023-03-26T13:04:24.470Z,1.40
2023-03-26T13:05:28.955Z,1.40
2023-03-26T13:06:31.334Z,1.60
2023-03-26T13:08:12.683Z,1.80
2023-03-26T13:09:17.338Z,1.20
2023-03-26T13:10:41.415Z,1.57
2023-03-26T13:12:06.853Z,1.33
2023-03-26T13:13:08.514Z,1.27
2023-03-26T13:14:16.498Z,1.50
2023-03-26T13:15:22.777Z,1.53
2023-03-26T13:16:44.675Z,1.40
2023-03-26T13:17:53.999Z,1.10
2023-03-26T13:18:55.627Z,1.63
2023-03-26T13:19:58.482Z,1.73
2023-03-26T13:21:03.231Z,2.33
2023-03-26T13:22:05.072Z,1.60
2023-03-26T13:23:18.287Z,1.10
2023-03-26T13:24:34.776Z,1.10
2023-03-26T13:25:40.991Z,1.37
2023-03-26T13:26:45.918Z,3.63
2023-03-26T13:28:02.874Z,1.57
2023-03-26T13:29:04.942Z,1.30
2023-03-26T13:30:19.614Z,0.77
2023-03-26T13:31:36.719Z,1.10
2023-03-26T13:32:57.885Z,1.20
2023-03-26T13:34:07.527Z,1.00
2023-03-26T13:35:15.960Z,1.10
2023-03-26T13:36:25.117Z,1.23
2023-03-26T13:37:46.229Z,1.03
2023-03-26T13:38:58.946Z,1.37
2023-03-26T13:40:22.763Z,1.20
2023-03-26T13:41:32.450Z,1.63
2023-03-26T13:42:37.893Z,1.60
2023-03-26T13:43:52.440Z,1.00
2023-03-26T13:45:04.661Z,1.40
2023-03-26T13:46:16.807Z,1.20
2023-03-26T13:47:24.936Z,1.10
2023-03-26T13:48:29.277Z,1.13
2023-03-26T13:49:37.247Z,1.20
2023-03-26T13:50:41.501Z,1.70
2023-03-26T13:51:44.986Z,1.33
2023-03-26T13:52:52.262Z,1.00
2023-03-26T13:54:14.052Z,1.30
2023-03-26T13:55:27.872Z,1.23
2023-03-26T13:56:34.959Z,1.87
2023-03-26T13:57:40.489Z,1.40
2023-03-26T13:58:58.729Z,0.90
2023-03-26T14:00:16.996Z,0.83
2023-03-26T14:01:34.076Z,0.70
2023-03-26T14:02:38.932Z,1.15
2023-03-26T14:03:52.058Z,1.00
2023-03-26T14:04:56.872Z,0.82
2023-03-26T14:06:03.910Z,0.60
2023-03-26T14:07:12.932Z,1.00
2023-03-26T14:08:25.588Z,1.23
2023-03-26T14:09:34.060Z,1.05
2023-03-26T14:10:38.849Z,1.00
2023-03-26T14:11:46.803Z,1.38
2023-03-26T14:13:08.114Z,1.77
2023-03-26T14:14:13.824Z,1.10
2023-03-26T14:15:23.976Z,1.20
2023-03-26T14:16:29.470Z,0.70
2023-03-26T14:17:38.641Z,1.05
2023-03-26T14:18:46.035Z,1.45
2023-03-26T14:19:54.218Z,1.45
2023-03-26T14:21:14.603Z,0.93
2023-03-26T14:22:34.574Z,1.40
2023-03-26T14:23:48.940Z,1.27
2023-03-26T14:24:51.875Z,1.23
2023-03-26T14:26:00.020Z,1.10
2023-03-26T14:27:24.494Z,0.88
2023-03-26T14:28:28.920Z,0.80
2023-03-26T14:29:56.985Z,1.10
2023-03-26T14:31:19.747Z,0.90
2023-03-26T14:32:40.831Z,0.90
2023-03-26T14:33:51.133Z,1.00
2023-03-26T14:35:10.016Z,0.80
2023-03-26T14:36:21.084Z,0.80
2023-03-26T14:37:27.850Z,0.85
2023-03-26T14:38:53.550Z,1.88
2023-03-26T14:40:15.370Z,1.83
2023-03-26T14:41:35.762Z,2.42
2023-03-26T14:42:42.728Z,2.80
2023-03-26T14:44:05.046Z,3.15
2023-03-26T14:45:19.160Z,6.70
2023-03-26T14:46:39.631Z,2.60
2023-03-26T14:47:45.319Z,2.85
2023-03-26T14:48:59.501Z,3.30
2023-03-26T14:50:21.220Z,1.50
2023-03-26T14:51:42.732Z,1.40
2023-03-26T14:52:48.084Z,1.10
2023-03-26T14:53:54.407Z,0.73
2023-03-26T14:54:58.834Z,1.80